Time;durP1;ratioP1;P1;durP2;ratioP2;P2;SDS_P1;SDS_P2;PMS_P1;PMS_P2;Temp;Humidity;BMP_temperature;BMP_pressure;BME280_temperature;BME280_humidity;BME280_pressure;Samples;Min_cycle;Max_cycle;Signal;HPM_P1;HPM_P2
2022/11/16 00:01:12;;;;;;;16.73;9.20;;;;;;;12.91;100.00;98769.78;5007021;28;20113;-66
2022/11/16 00:03:38;;;;;;;15.52;9.05;;;;;;;12.89;100.00;98756.53;4992159;28;20501;-66
2022/11/16 00:06:06;;;;;;;15.75;8.98;;;;;;;12.95;100.00;98769.47;4992521;28;20022;-65
2022/11/16 00:08:37;;;;;;;16.73;8.73;;;;;;;12.97;100.00;98762.25;4993049;28;20027;-67
2022/11/16 00:11:09;;;;;;;14.95;9.48;;;;;;;12.95;100.00;98766.81;4992119;28;20053;-67
2022/11/16 00:13:35;;;;;;;16.90;9.32;;;;;;;12.98;100.00;98769.28;4992048;28;20081;-67
2022/11/16 00:16:01;;;;;;;16.83;9.50;;;;;;;12.99;100.00;98771.03;4991698;28;20058;-67
2022/11/16 00:18:26;;;;;;;16.20;9.43;;;;;;;12.96;100.00;98757.84;4991564;28;20626;-67
2022/11/16 00:20:52;;;;;;;16.00;9.55;;;;;;;13.05;100.00;98762.66;4991978;28;20026;-67
2022/11/16 00:23:17;;;;;;;15.32;9.85;;;;;;;13.07;100.00;98760.75;4991712;28;20080;-67
2022/11/16 00:25:43;;;;;;;14.82;8.48;;;;;;;13.01;100.00;98749.59;4991890;28;20089;-67
2022/11/16 00:28:09;;;;;;;15.30;8.70;;;;;;;13.04;100.00;98760.94;4991954;28;20030;-67
2022/11/16 00:30:35;;;;;;;15.88;8.77;;;;;;;13.06;100.00;98756.34;4992421;28;20397;-67
2022/11/16 00:33:04;;;;;;;15.45;9.30;;;;;;;13.04;100.00;98755.59;4992140;28;20145;-67
2022/11/16 00:35:29;;;;;;;18.05;8.70;;;;;;;13.06;100.00;98753.69;4992088;28;20034;-67
2022/11/16 00:37:55;;;;;;;18.00;9.65;;;;;;;13.07;100.00;98755.41;4995460;28;20035;-67
2022/11/16 00:40:20;;;;;;;15.13;9.68;;;;;;;13.07;100.00;98749.19;4996022;28;20080;-68
2022/11/16 00:42:46;;;;;;;16.67;10.20;;;;;;;13.03;100.00;98756.53;4998259;28;20026;-67
2022/11/16 00:45:11;;;;;;;18.08;10.35;;;;;;;13.01;100.00;98749.59;4995840;28;20581;-68
2022/11/16 00:47:37;;;;;;;16.67;9.82;;;;;;;13.01;100.00;98755.78;4995367;28;20488;-67
2022/11/16 00:50:04;;;;;;;18.55;11.85;;;;;;;13.01;100.00;98746.94;4995126;28;20030;-68
2022/11/16 00:52:29;;;;;;;16.08;9.32;;;;;;;12.99;100.00;98752.34;4994889;28;20027;-67
2022/11/16 00:54:55;;;;;;;17.15;9.50;;;;;;;12.97;100.00;98754.22;4994910;28;20165;-67
2022/11/16 00:57:20;;;;;;;16.55;9.35;;;;;;;13.01;100.00;98754.94;4995033;28;20038;-68
2022/11/16 00:59:45;;;;;;;14.15;8.57;;;;;;;12.97;100.00;98745.34;4994907;28;20034;-67
2022/11/16 01:02:11;;;;;;;19.05;9.88;;;;;;;12.99;100.00;98752.34;4995021;28;20057;-67
2022/11/16 01:04:36;;;;;;;16.88;10.05;;;;;;;12.95;100.00;98744.59;4994626;28;20037;-68
2022/11/16 01:07:02;;;;;;;17.38;9.27;;;;;;;12.93;100.00;98747.34;4994634;28;20088;-68
2022/11/16 01:09:27;;;;;;;15.52;9.35;;;;;;;12.92;100.00;98751.00;4994727;28;20038;-66
2022/11/16 01:12:07;;;;;;;15.75;8.65;;;;;;;12.91;100.00;98746.63;4994821;28;20084;-67
2022/11/16 01:14:35;;;;;;;15.02;9.75;;;;;;;12.89;100.00;98744.97;4994435;28;20110;-66
2022/11/16 01:17:00;;;;;;;15.05;8.10;;;;;;;12.87;100.00;98745.06;4994691;28;20077;-67
2022/11/16 01:19:26;;;;;;;17.35;9.70;;;;;;;12.86;100.00;98740.72;4997087;28;20026;-67
2022/11/16 01:21:51;;;;;;;20.55;9.52;;;;;;;12.89;100.00;98739.66;4995322;28;20030;-67
2022/11/16 01:24:16;;;;;;;14.52;8.57;;;;;;;12.89;100.00;98744.97;4995242;28;20565;-67
2022/11/16 01:26:42;;;;;;;15.77;9.02;;;;;;;12.90;100.00;98752.03;4995653;28;20121;-67
2022/11/16 01:29:07;;;;;;;15.57;9.35;;;;;;;12.85;100.00;98738.97;4995579;28;20053;-68
2022/11/16 01:31:33;;;;;;;17.83;9.73;;;;;;;12.92;100.00;98761.66;4996336;28;20053;-68
2022/11/16 01:33:58;;;;;;;18.27;10.10;;;;;;;12.92;100.00;98767.00;4995677;28;20049;-67
2022/11/16 01:36:24;;;;;;;17.80;10.90;;;;;;;12.92;100.00;98766.13;4997765;28;20100;-68
2022/11/16 01:38:49;;;;;;;17.23;11.02;;;;;;;12.91;100.00;98775.09;4994636;28;20049;-69
2022/11/16 01:41:21;;;;;;;20.63;11.13;;;;;;;12.84;100.00;98763.97;4994280;28;20022;-68
2022/11/16 01:44:02;;;;;;;21.98;10.57;;;;;;;12.89;100.00;98783.22;4992858;28;20081;-69
2022/11/16 01:46:28;;;;;;;14.20;8.73;;;;;;;12.85;100.00;98781.66;4992778;28;20041;-69
2022/11/16 01:49:10;;;;;;;17.77;9.98;;;;;;;12.89;100.00;98809.91;4993045;28;20526;-69
2022/11/16 01:51:37;;;;;;;18.38;10.00;;;;;;;12.87;100.00;98805.59;4994073;28;20108;-69
2022/11/16 01:54:06;;;;;;;15.55;8.82;;;;;;;12.82;100.00;98792.53;4993331;28;20027;-70
2022/11/16 01:56:35;;;;;;;18.75;9.70;;;;;;;12.82;100.00;98776.53;4994162;28;20030;-69
2022/11/16 01:59:00;;;;;;;16.50;9.63;;;;;;;12.86;100.00;98799.41;4992198;28;20014;-69
2022/11/16 02:01:26;;;;;;;17.48;9.45;;;;;;;12.85;100.00;98807.53;5008488;28;20033;-69
2022/11/16 02:03:51;;;;;;;20.63;10.63;;;;;;;12.81;100.00;98796.16;4993360;28;20018;-69
2022/11/16 02:06:25;;;;;;;19.73;10.23;;;;;;;12.85;100.00;98807.53;4993852;28;20034;-68
2022/11/16 02:12:23;;;;;;;14.77;9.32;;;;;;;12.87;100.00;98784.25;4974165;28;20062;-69
2022/11/16 02:15:10;;;;;;;13.93;8.73;;;;;;;12.89;100.00;98783.22;4974198;28;20039;-69
2022/11/16 02:17:50;;;;;;;16.63;9.30;;;;;;;12.90;100.00;98782.25;4983678;28;20544;-70
2022/11/16 02:20:31;;;;;;;18.88;8.88;;;;;;;12.69;100.00;98732.88;4993297;28;20030;-70
2022/11/16 02:23:31;;;;;;;16.98;8.57;;;;;;;12.87;100.00;98771.78;4993543;28;20049;-70
2022/11/16 02:26:18;;;;;;;15.65;9.15;;;;;;;12.88;100.00;98759.28;4992259;28;20050;-69
2022/11/16 02:28:59;;;;;;;16.05;8.52;;;;;;;12.84;100.00;98757.75;4993349;28;20502;-70
2022/11/16 02:31:32;;;;;;;15.40;8.45;;;;;;;12.84;100.00;98745.28;4993429;28;20033;-70
2022/11/16 02:33:59;;;;;;;17.67;9.25;;;;;;;12.78;100.00;98742.13;4993281;28;20038;-69
2022/11/16 02:36:25;;;;;;;18.02;10.77;;;;;;;12.78;100.00;98764.31;4993197;28;20029;-69
2022/11/16 02:38:57;;;;;;;21.30;11.23;;;;;;;12.80;100.00;98783.75;4992953;28;20397;-69
2022/11/16 02:41:26;;;;;;;20.33;9.93;;;;;;;12.81;100.00;98790.84;4993045;28;20082;-69
2022/11/16 02:44:07;;;;;;;19.52;9.88;;;;;;;12.76;100.00;98782.25;4993223;28;20030;-69
2022/11/16 02:46:38;;;;;;;16.13;8.50;;;;;;;12.87;100.00;98806.47;4993374;28;20053;-69
2022/11/16 02:49:10;;;;;;;19.42;9.50;;;;;;;12.89;100.00;98804.56;4994061;28;20030;-69
2022/11/16 02:51:37;;;;;;;19.30;8.57;;;;;;;12.81;100.00;98789.97;4993013;28;20036;-69
2022/11/16 02:54:18;;;;;;;17.55;9.43;;;;;;;12.78;100.00;98774.97;4992890;28;20122;-69
2022/11/16 02:56:55;;;;;;;15.75;7.75;;;;;;;12.90;100.00;98778.72;4992972;28;20038;-70
2022/11/16 02:59:24;;;;;;;14.60;7.32;;;;;;;12.87;100.00;98771.78;4992952;28;20030;-71
2022/11/16 03:02:03;;;;;;;16.60;8.70;;;;;;;12.88;100.00;98781.47;5007844;28;20026;-69
2022/11/16 03:04:36;;;;;;;17.63;9.65;;;;;;;12.80;100.00;98765.09;4992673;28;20133;-69
2022/11/16 03:07:06;;;;;;;20.05;10.20;;;;;;;12.85;100.00;98765.66;4992599;28;20109;-68
2022/11/16 03:09:36;;;;;;;14.48;8.57;;;;;;;12.85;100.00;98772.81;4992683;28;20030;-67
2022/11/16 03:12:07;;;;;;;17.33;9.27;;;;;;;12.80;100.00;98766.91;4992402;28;20054;-67
2022/11/16 03:14:42;;;;;;;17.15;9.85;;;;;;;12.80;100.00;98773.09;4992729;28;20512;-68
2022/11/16 03:17:15;;;;;;;19.33;8.15;;;;;;;12.81;100.00;98779.28;4992425;28;20189;-68
2022/11/16 03:19:42;;;;;;;15.07;9.07;;;;;;;12.85;100.00;98776.34;4991814;28;20026;-68
2022/11/16 03:22:19;;;;;;;15.13;8.35;;;;;;;12.84;100.00;98779.97;4992438;28;20110;-68
2022/11/16 03:24:45;;;;;;;15.32;8.43;;;;;;;12.87;100.00;98777.09;4992356;28;20069;-68
2022/11/16 03:27:28;;;;;;;15.70;9.38;;;;;;;12.84;100.00;98763.97;4994095;28;20025;-68
2022/11/16 03:30:16;;;;;;;14.40;8.45;;;;;;;12.86;100.00;98767.41;4993825;28;20085;-68
2022/11/16 03:32:52;;;;;;;16.77;8.77;;;;;;;12.86;100.00;98767.41;4991612;28;20418;-68
2022/11/16 03:35:33;;;;;;;15.93;8.20;;;;;;;12.86;100.00;98783.41;4991298;28;20053;-69
2022/11/16 03:38:01;;;;;;;14.57;9.07;;;;;;;12.87;100.00;98784.25;4991411;28;20026;-69
2022/11/16 03:40:30;;;;;;;15.05;8.60;;;;;;;12.85;100.00;98786.16;4992169;28;20154;-68
2022/11/16 03:42:58;;;;;;;21.27;9.35;;;;;;;12.84;100.00;98779.97;4992621;28;20054;-71
2022/11/16 03:45:24;;;;;;;15.65;7.45;;;;;;;12.91;100.00;98781.31;4992000;28;20034;-68
2022/11/16 03:47:50;;;;;;;14.57;8.45;;;;;;;12.89;100.00;98761.88;4991883;28;20033;-67
2022/11/16 03:50:16;;;;;;;14.85;7.13;;;;;;;12.87;100.00;98762.88;4991819;28;20022;-67
2022/11/16 03:52:41;;;;;;;15.75;7.50;;;;;;;12.91;100.00;98765.31;4991710;28;20386;-67
2022/11/16 03:55:07;;;;;;;24.90;8.13;;;;;;;12.94;100.00;98770.44;4991539;28;20038;-67
2022/11/16 03:57:33;;;;;;;14.13;6.63;;;;;;;12.97;100.00;98766.72;4991969;28;20062;-67
2022/11/16 03:59:58;;;;;;;12.90;7.38;;;;;;;12.92;100.00;98772.34;4991671;28;20486;-67
2022/11/16 04:02:24;;;;;;;11.82;7.05;;;;;;;12.92;100.00;98780.34;4991803;28;20028;-66
2022/11/16 04:24:19;;;;;;;14.38;6.80;;;;;;;12.98;100.00;98787.97;4970785;28;20057;-66
2022/11/16 04:29:34;;;;;;;13.20;7.13;;;;;;;12.97;100.00;98791.59;4975474;28;20710;-66
2022/11/16 04:40:12;;;;;;;12.77;7.50;;;;;;;13.07;100.00;98797.25;4991297;28;20528;-66
2022/11/16 04:42:37;;;;;;;19.00;7.97;;;;;;;13.07;100.00;98798.13;4991161;28;20026;-66
2022/11/16 04:47:49;;;;;;;12.18;6.70;;;;;;;13.10;100.00;98797.94;4950191;28;20144;-67
2022/11/16 04:50:14;;;;;;;14.30;8.48;;;;;;;13.10;100.00;98802.41;4971486;28;20527;-67
2022/11/16 04:52:40;;;;;;;11.73;8.38;;;;;;;13.09;100.00;98801.56;4971119;28;20051;-67
2022/11/16 04:55:06;;;;;;;14.38;8.20;;;;;;;13.09;100.00;98801.56;4971459;28;20114;-67
2022/11/16 04:57:31;;;;;;;13.10;7.35;;;;;;;13.06;100.00;98801.72;4971247;28;20030;-67
2022/11/16 04:59:56;;;;;;;12.88;7.25;;;;;;;13.07;100.00;98798.13;4979017;28;20030;-67
2022/11/16 05:02:22;;;;;;;14.55;7.72;;;;;;;13.10;100.00;98803.28;4990789;28;20022;-67
2022/11/16 05:04:47;;;;;;;14.98;7.50;;;;;;;13.10;100.00;98803.28;4991049;28;20041;-67
2022/11/16 05:07:14;;;;;;;16.30;8.65;;;;;;;13.11;100.00;98799.63;4991046;28;20374;-66
2022/11/16 05:09:41;;;;;;;21.02;7.82;;;;;;;13.14;100.00;98799.47;4991132;28;20062;-66
2022/11/16 05:12:15;;;;;;;13.02;7.00;;;;;;;13.13;100.00;98803.06;4990464;28;20042;-67
2022/11/16 05:14:41;;;;;;;;;;;;;;;13.13;100.00;98803.06;4991360;28;20026;-67
2022/11/16 05:17:06;;;;;;;14.63;7.45;;;;;;;13.12;100.00;98806.72;4990231;28;19909;-67
2022/11/16 05:22:16;;;;;;;12.48;6.88;;;;;;;13.14;100.00;98807.47;5005541;28;20044;-68
2022/11/16 05:24:41;;;;;;;12.77;7.32;;;;;;;13.15;100.00;98809.19;5012692;28;20034;-68
2022/11/16 05:27:10;;;;;;;12.15;6.78;;;;;;;13.13;100.00;98805.75;5005987;28;20038;-67
2022/11/16 05:29:36;;;;;;;15.00;8.57;;;;;;;13.09;100.00;98801.56;5006914;28;20035;-69
2022/11/16 05:32:02;;;;;;;12.32;7.05;;;;;;;13.12;100.00;98812.03;4994390;28;20026;-70
2022/11/16 05:34:28;;;;;;;13.82;7.00;;;;;;;13.12;100.00;98812.03;5009603;28;20355;-69
2022/11/16 05:36:53;;;;;;;17.65;7.70;;;;;;;13.13;100.00;98803.06;5009225;28;20027;-68
2022/11/16 05:39:19;;;;;;;17.70;7.53;;;;;;;13.10;100.00;98813.09;4994136;28;20061;-69
2022/11/16 05:41:45;;;;;;;13.60;7.22;;;;;;;13.12;100.00;98816.53;4994112;28;20041;-68
2022/11/16 05:44:12;;;;;;;22.13;8.43;;;;;;;13.09;100.00;98811.38;4994357;28;20030;-68
2022/11/16 05:46:37;;;;;;;25.92;12.00;;;;;;;13.14;100.00;98811.94;4994443;28;20034;-67
2022/11/16 05:49:05;;;;;;;21.55;9.10;;;;;;;13.10;100.00;98816.63;5011418;28;20045;-67
2022/11/16 05:51:31;;;;;;;13.88;7.30;;;;;;;13.05;100.00;98810.69;5013545;28;20033;-67
2022/11/16 05:53:56;;;;;;;13.05;6.35;;;;;;;13.10;100.00;98813.94;5013637;28;20034;-67
2022/11/16 05:56:22;;;;;;;10.05;4.88;;;;;;;13.09;100.00;98822.06;5013599;28;20049;-68
2022/11/16 05:58:48;;;;;;;11.20;4.53;;;;;;;13.09;100.00;98822.91;5013372;28;20136;-70
2022/11/16 06:01:14;;;;;;;6.95;4.40;;;;;;;13.08;100.00;98823.84;4997293;28;20043;-68
2022/11/16 06:03:42;;;;;;;7.45;4.05;;;;;;;13.07;100.00;98830.16;4993722;28;20049;-67
2022/11/16 06:06:08;;;;;;;9.57;5.13;;;;;;;12.97;100.00;98814.75;4994185;28;20496;-70
2022/11/16 06:08:33;;;;;;;14.68;5.55;;;;;;;13.10;100.00;98847.78;4993637;28;20030;-68
2022/11/16 06:11:06;;;;;;;12.05;5.72;;;;;;;13.09;100.00;98846.09;4993601;28;20050;-67
2022/11/16 06:13:32;;;;;;;10.90;6.25;;;;;;;13.08;100.00;98850.56;4992529;28;20034;-68
2022/11/16 06:15:58;;;;;;;10.65;6.03;;;;;;;13.05;100.00;98841.88;4992220;28;20038;-67
2022/11/16 06:18:24;;;;;;;9.57;5.15;;;;;;;13.01;100.00;98851.03;4993595;28;20088;-68
2022/11/16 06:20:50;;;;;;;9.82;5.28;;;;;;;12.97;100.00;98853.00;5008262;28;20031;-68
2022/11/16 06:23:15;;;;;;;9.82;4.72;;;;;;;12.98;100.00;98852.03;4993543;28;20470;-68
2022/11/16 06:25:41;;;;;;;9.48;4.97;;;;;;;13.00;100.00;98849.25;4993837;28;20068;-69
2022/11/16 06:28:07;;;;;;;8.57;5.05;;;;;;;12.94;100.00;98861.19;4992052;28;20026;-67
2022/11/16 06:30:32;;;;;;;11.60;6.20;;;;;;;12.92;100.00;98846.19;4993249;28;20034;-67
2022/11/16 06:32:58;;;;;;;11.07;4.60;;;;;;;12.83;100.00;98855.63;4993256;28;20057;-67
2022/11/16 06:35:24;;;;;;;9.60;5.10;;;;;;;12.81;100.00;98848.66;4992739;28;20130;-66
2022/11/16 06:37:49;;;;;;;13.45;5.38;;;;;;;12.84;100.00;98854.69;4993107;28;20038;-67
2022/11/16 06:40:15;;;;;;;14.05;4.57;;;;;;;12.84;100.00;98854.69;4993283;28;20041;-67
2022/11/16 06:42:40;;;;;;;9.35;4.32;;;;;;;12.87;100.00;98856.28;5001720;28;20028;-67
2022/11/16 06:45:06;;;;;;;8.75;5.00;;;;;;;12.87;100.00;98858.97;5009731;28;20477;-68
2022/11/16 06:47:33;;;;;;;10.27;5.88;;;;;;;12.82;100.00;98859.25;5011771;28;20030;-67
2022/11/16 06:49:58;;;;;;;13.43;5.50;;;;;;;12.78;100.00;98863.03;5012485;28;20033;-67
2022/11/16 06:52:24;;;;;;;14.38;5.72;;;;;;;12.83;100.00;98858.28;4994781;28;20037;-67
2022/11/16 06:54:49;;;;;;;13.07;6.20;;;;;;;12.82;100.00;98867.25;4993074;28;20076;-67
2022/11/16 06:57:14;;;;;;;15.18;5.65;;;;;;;12.79;100.00;98859.44;4992826;28;20339;-67
2022/11/16 06:59:40;;;;;;;9.95;5.00;;;;;;;12.77;100.00;98872.00;4993748;28;20140;-70
2022/11/16 07:02:05;;;;;;;8.57;5.68;;;;;;;12.82;100.00;98883.25;4994107;28;20143;-67
2022/11/16 07:04:31;;;;;;;11.23;5.03;;;;;;;12.82;100.00;98880.59;4992397;28;20033;-67
2022/11/16 07:06:57;;;;;;;10.02;5.15;;;;;;;12.82;100.00;98883.25;4992535;28;20512;-67
2022/11/16 07:09:22;;;;;;;8.43;5.15;;;;;;;12.85;100.00;98880.41;4992682;28;20088;-67
2022/11/16 07:11:48;;;;;;;9.40;5.00;;;;;;;12.89;100.00;98889.97;4992542;28;20073;-67
2022/11/16 07:14:13;;;;;;;10.02;4.82;;;;;;;12.87;100.00;98896.31;4992630;28;20488;-67
2022/11/16 07:16:38;;;;;;;9.40;4.40;;;;;;;12.90;100.00;98901.47;4993006;28;20030;-72
2022/11/16 07:19:04;;;;;;;6.78;4.07;;;;;;;12.89;100.00;98905.97;4992067;28;20033;-68
2022/11/16 07:21:31;;;;;;;14.25;5.88;;;;;;;12.91;100.00;98914.75;4994744;28;20022;-68
2022/11/16 07:23:56;;;;;;;7.75;4.55;;;;;;;12.92;100.00;98908.47;4992352;28;20034;-68
2022/11/16 07:26:22;;;;;;;8.77;4.22;;;;;;;12.98;100.00;98904.56;4992123;28;20081;-68
2022/11/16 07:28:47;;;;;;;10.00;4.70;;;;;;;12.97;100.00;98903.72;4991830;28;20030;-68
2022/11/16 07:31:14;;;;;;;6.60;4.30;;;;;;;13.02;100.00;98901.66;4991670;28;20027;-68
2022/11/16 07:33:40;;;;;;;9.18;4.60;;;;;;;13.03;100.00;98905.19;4992065;28;20073;-68
2022/11/16 07:36:06;;;;;;;7.05;3.72;;;;;;;13.04;100.00;98910.44;4991963;28;20026;-68
2022/11/16 07:38:32;;;;;;;9.45;3.95;;;;;;;13.01;100.00;98902.59;4994501;28;20034;-67
2022/11/16 07:41:02;;;;;;;8.25;3.20;;;;;;;13.07;100.00;98915.59;4991981;28;20034;-68
2022/11/16 07:43:31;;;;;;;6.07;3.13;;;;;;;13.06;100.00;98921.03;4991766;28;20501;-68
2022/11/16 07:46:05;;;;;;;7.07;3.63;;;;;;;13.08;100.00;98919.97;4990851;28;20474;-70
2022/11/16 07:48:31;;;;;;;8.25;4.10;;;;;;;13.13;100.00;98920.56;4993388;28;20034;-69
2022/11/16 07:51:04;;;;;;;6.88;3.53;;;;;;;13.14;100.00;98919.63;4990890;28;20026;-70
2022/11/16 07:53:30;;;;;;;7.67;4.30;;;;;;;13.23;100.00;98917.34;4986443;28;20486;-70
2022/11/16 07:55:56;;;;;;;6.85;4.15;;;;;;;13.35;100.00;98916.56;4991337;28;20061;-70
2022/11/16 07:58:22;;;;;;;7.78;4.15;;;;;;;13.79;100.00;98907.50;4988802;28;20096;-70
2022/11/16 08:00:48;;;;;;;7.18;4.10;;;;;;;15.13;100.00;98913.78;4985691;28;20482;-68
2022/11/16 08:03:13;;;;;;;8.88;4.90;;;;;;;16.89;100.00;98919.72;4974674;28;20085;-68
2022/11/16 08:05:39;;;;;;;7.65;4.32;;;;;;;17.46;100.00;98904.50;4985932;28;20098;-68
2022/11/16 08:08:05;;;;;;;5.55;3.35;;;;;;;17.06;100.00;98911.25;4976865;28;20094;-69
2022/11/16 08:10:30;;;;;;;3.72;2.08;;;;;;;16.32;98.15;98914.16;4990170;28;20050;-68
2022/11/16 08:12:56;;;;;;;7.40;3.33;;;;;;;15.64;99.21;98916.41;4991344;28;20022;-68
2022/11/16 08:15:22;;;;;;;8.13;3.95;;;;;;;15.02;100.00;98917.19;4991394;28;20022;-68
2022/11/16 08:17:47;;;;;;;6.93;4.00;;;;;;;14.68;100.00;98925.75;4991313;28;20034;-68
2022/11/16 08:20:13;;;;;;;5.22;3.33;;;;;;;14.44;100.00;98920.22;4990059;28;20049;-68
2022/11/16 08:22:38;;;;;;;5.60;2.97;;;;;;;14.21;100.00;98922.63;4986438;28;20046;-68
2022/11/16 08:25:04;;;;;;;7.70;2.72;;;;;;;14.08;100.00;98932.41;4981712;28;20123;-68
2022/11/16 08:27:31;;;;;;;4.85;2.53;;;;;;;13.97;100.00;98934.91;4991017;28;20035;-68
2022/11/16 08:29:57;;;;;;;4.70;2.53;;;;;;;13.82;100.00;98925.19;4990611;28;20033;-69
2022/11/16 08:32:22;;;;;;;4.47;2.38;;;;;;;13.77;100.00;98924.63;4990675;28;20049;-69
2022/11/16 08:34:48;;;;;;;4.25;2.40;;;;;;;13.73;100.00;98921.28;4990691;28;20406;-68
2022/11/16 08:37:13;;;;;;;4.28;2.53;;;;;;;13.82;100.00;98930.53;4988414;28;20045;-68
2022/11/16 08:39:39;;;;;;;3.70;2.35;;;;;;;13.85;100.00;98930.34;4989385;28;20470;-69
2022/11/16 08:42:04;;;;;;;3.40;2.08;;;;;;;13.82;100.00;98909.16;4992705;28;20026;-68
2022/11/16 08:44:30;;;;;;;6.15;2.50;;;;;;;14.07;100.00;98925.31;4988547;28;20102;-68
2022/11/16 08:46:55;;;;;;;6.93;3.55;;;;;;;15.77;100.00;98930.66;4985280;28;20041;-69
2022/11/16 08:49:21;;;;;;;11.25;3.15;;;;;;;18.35;100.00;98927.75;4985909;28;20026;-68
2022/11/16 08:51:46;;;;;;;4.50;2.70;;;;;;;20.78;90.14;98922.72;4984604;28;20414;-69
2022/11/16 08:54:12;;;;;;;9.13;3.22;;;;;;;22.51;67.76;98930.41;4986107;28;20029;-69
2022/11/16 08:56:37;;;;;;;5.10;2.20;;;;;;;23.99;63.28;98928.81;4986992;28;20034;-77
2022/11/16 08:59:02;;;;;;;11.15;5.00;;;;;;;25.32;52.90;98928.81;4988556;28;20026;-72
2022/11/16 09:01:30;;;;;;;8.15;2.53;;;;;;;26.03;50.12;98929.00;4989859;28;20899;-71
2022/11/16 09:03:55;;;;;;;5.05;1.17;;;;;;;25.60;47.88;98941.94;4988957;28;20026;-70
2022/11/16 09:06:23;;;;;;;4.93;2.00;;;;;;;25.76;49.57;98928.34;4988538;28;20108;-70
2022/11/16 09:08:48;;;;;;;2.65;1.10;;;;;;;25.54;48.15;98937.19;4989900;28;20038;-70
2022/11/16 09:11:17;;;;;;;4.10;1.60;;;;;;;26.21;48.43;98929.63;4988070;28;20042;-69
2022/11/16 09:13:44;;;;;;;3.30;1.33;;;;;;;26.57;46.44;98931.69;4989775;28;20053;-69
2022/11/16 09:16:10;;;;;;;3.95;1.23;;;;;;;26.60;47.06;98930.50;4977276;28;20041;-69
2022/11/16 09:18:36;;;;;;;3.15;0.98;;;;;;;26.45;45.42;98910.47;4989759;28;20031;-69
2022/11/16 09:21:01;;;;;;;3.25;1.10;;;;;;;27.08;45.27;98938.47;4990363;28;20032;-69
2022/11/16 09:23:27;;;;;;;2.35;0.90;;;;;;;26.53;46.00;98934.97;4987708;28;20030;-69
2022/11/16 09:25:53;;;;;;;2.42;0.90;;;;;;;26.21;45.96;98937.81;4989154;28;20445;-70
2022/11/16 09:28:19;;;;;;;3.47;1.15;;;;;;;26.75;45.55;98929.63;4988728;28;20163;-70
2022/11/16 09:30:46;;;;;;;2.00;0.70;;;;;;;26.20;45.77;98944.28;4976353;28;20872;-69
2022/11/16 09:33:12;;;;;;;3.20;0.70;;;;;;;26.05;46.30;98935.09;4987723;28;20113;-69
2022/11/16 09:35:38;;;;;;;1.55;0.82;;;;;;;26.21;46.38;98935.09;4987884;28;20026;-69
2022/11/16 09:38:04;;;;;;;3.08;1.05;;;;;;;26.51;45.52;98937.00;4987404;28;20109;-70
2022/11/16 09:40:43;;;;;;;2.20;0.93;;;;;;;26.70;46.23;98942.09;4987343;28;20037;-70
2022/11/16 09:43:26;;;;;;;3.60;0.77;;;;;;;26.66;44.97;98935.28;4986523;28;20045;-71
2022/11/16 09:46:20;;;;;;;2.38;0.80;;;;;;;26.71;44.88;98930.16;4988327;28;20085;-71
2022/11/16 09:48:48;;;;;;;2.30;0.75;;;;;;;26.50;45.19;98932.59;4978340;28;20049;-71
2022/11/16 09:51:15;;;;;;;2.95;0.75;;;;;;;26.18;45.65;98933.56;4988286;28;20037;-71
2022/11/16 09:53:54;;;;;;;2.22;0.70;;;;;;;26.31;46.03;98931.13;4987417;28;20161;-71
2022/11/16 09:56:23;;;;;;;3.22;1.23;;;;;;;26.34;44.68;98916.31;4988173;28;20142;-72
2022/11/16 09:58:51;;;;;;;3.67;1.33;;;;;;;26.08;45.16;98926.63;4989532;28;20107;-71
2022/11/16 10:01:26;;;;;;;3.85;1.52;;;;;;;25.53;47.29;98916.44;4987664;28;20057;-72
2022/11/16 10:04:00;;;;;;;2.10;0.82;;;;;;;25.45;47.77;98927.31;4986887;28;20486;-72
2022/11/16 10:06:48;;;;;;;4.22;1.83;;;;;;;25.17;48.00;98922.34;4985916;28;20469;-72
2022/11/16 10:09:14;;;;;;;3.83;0.90;;;;;;;25.28;47.75;98925.59;4986291;28;20037;-72
2022/11/16 10:11:54;;;;;;;4.47;1.17;;;;;;;25.25;48.09;98925.94;4988160;28;20050;-72
2022/11/16 10:14:38;;;;;;;2.15;0.80;;;;;;;24.35;48.03;98920.34;4984043;28;20032;-72
2022/11/16 10:17:35;;;;;;;3.78;0.90;;;;;;;23.82;50.97;98916.13;4987364;28;20049;-72
2022/11/16 10:20:24;;;;;;;1.95;0.73;;;;;;;24.53;50.37;98917.53;4975541;28;20453;-72
2022/11/16 10:23:14;;;;;;;4.18;1.10;;;;;;;25.12;49.05;98916.53;4988572;28;20038;-73
2022/11/16 10:25:44;;;;;;;2.72;0.90;;;;;;;24.85;48.57;98912.25;4986744;28;20032;-73
2022/11/16 10:28:31;;;;;;;5.70;2.33;;;;;;;23.44;50.50;98914.66;4988391;28;20045;-72
2022/11/16 10:31:15;;;;;;;7.38;2.15;;;;;;;23.15;50.98;98914.00;4986576;28;20034;-72
2022/11/16 10:33:45;;;;;;;3.38;1.23;;;;;;;23.34;53.13;98892.19;4987358;28;20038;-72
2022/11/16 10:36:15;;;;;;;3.72;0.70;;;;;;;23.68;50.71;98900.41;4987031;28;20018;-72
2022/11/16 10:38:42;;;;;;;3.15;1.00;;;;;;;23.39;51.27;98898.81;4986557;28;20482;-72
2022/11/16 10:41:20;;;;;;;2.35;0.80;;;;;;;23.71;51.40;98894.63;4987432;28;20057;-72
2022/11/16 10:43:47;;;;;;;3.85;0.70;;;;;;;23.71;50.75;98894.63;4986249;28;20085;-72
2022/11/16 10:46:32;;;;;;;3.97;0.77;;;;;;;22.96;51.95;98885.19;4985863;28;20038;-72
2022/11/16 10:49:43;;;;;;;1.92;0.70;;;;;;;22.94;53.31;98902.63;4985393;28;20030;-72
2022/11/16 10:52:08;;;;;;;2.35;0.75;;;;;;;23.33;53.04;98879.59;4962284;28;20925;-72
2022/11/16 10:54:33;;;;;;;3.63;0.73;;;;;;;23.77;51.87;98872.28;4986222;28;20038;-72
2022/11/16 10:57:12;;;;;;;2.72;0.60;;;;;;;23.45;50.24;98878.34;4984668;28;20042;-73
2022/11/16 10:59:57;;;;;;;3.40;0.80;;;;;;;23.18;51.29;98873.84;4985681;28;20033;-74
2022/11/16 11:02:36;;;;;;;1.50;0.40;;;;;;;23.26;52.27;98860.38;4984701;28;20390;-72
2022/11/16 11:05:20;;;;;;;0.75;0.45;;;;;;;23.52;50.86;98865.00;4984294;28;20104;-72
2022/11/16 11:07:50;;;;;;;1.38;0.50;;;;;;;23.17;50.96;98861.31;4986357;28;20030;-72
2022/11/16 11:10:40;;;;;;;0.95;0.70;;;;;;;23.14;50.04;98856.19;4985419;28;20184;-72
2022/11/16 11:13:21;;;;;;;2.20;0.60;;;;;;;23.14;51.34;98850.78;4986232;28;20121;-72
2022/11/16 11:15:50;;;;;;;4.50;1.02;;;;;;;23.27;50.74;98850.41;4985398;28;20049;-72
2022/11/16 11:18:23;;;;;;;2.33;0.50;;;;;;;23.39;49.17;98854.56;4984880;28;20105;-72
2022/11/16 11:20:52;;;;;;;1.92;0.60;;;;;;;22.80;50.30;98841.63;4984894;28;20045;-73
2022/11/16 11:23:23;;;;;;;0.68;0.30;;;;;;;22.23;52.12;98846.56;4986301;28;20433;-73
2022/11/16 11:25:56;;;;;;;2.17;0.52;;;;;;;21.81;53.19;98847.03;4986823;28;20061;-73
2022/11/16 11:28:28;;;;;;;2.47;0.65;;;;;;;21.37;53.03;98849.56;4985611;28;20141;-72
2022/11/16 11:31:10;;;;;;;3.13;0.70;;;;;;;20.89;53.62;98847.75;4985844;28;20086;-72
2022/11/16 11:33:42;;;;;;;4.80;1.00;;;;;;;20.58;56.76;98840.78;4979106;28;20142;-72
2022/11/16 11:36:20;;;;;;;1.60;0.50;;;;;;;19.93;54.09;98834.22;4984269;28;20058;-72
2022/11/16 11:39:04;;;;;;;2.25;0.65;;;;;;;19.29;56.41;98833.63;4989639;28;20482;-72
2022/11/16 11:41:35;;;;;;;1.08;0.40;;;;;;;18.86;61.08;98836.41;4987045;28;20088;-71
2022/11/16 11:44:05;;;;;;;1.27;0.50;;;;;;;18.83;63.10;98835.84;4986603;28;20393;-72
2022/11/16 11:46:39;;;;;;;1.75;0.80;;;;;;;19.61;60.52;98826.28;4984204;28;20063;-72
2022/11/16 11:49:19;;;;;;;2.78;0.60;;;;;;;19.93;59.62;98826.13;4984634;28;20088;-72
2022/11/16 11:51:46;;;;;;;2.53;0.60;;;;;;;20.08;57.81;98822.88;4983901;28;20032;-72
2022/11/16 11:54:22;;;;;;;2.35;0.52;;;;;;;20.31;57.81;98823.56;4984920;28;20026;-72
2022/11/16 11:56:48;;;;;;;1.95;0.80;;;;;;;19.92;57.36;98819.84;4990676;28;20034;-71
2022/11/16 11:59:19;;;;;;;3.33;1.17;;;;;;;19.44;59.76;98818.78;4990552;28;20037;-71
2022/11/16 12:02:01;;;;;;;6.50;1.80;;;;;;;19.01;62.15;98824.31;4989687;28;20121;-71
2022/11/16 12:04:51;;;;;;;2.45;1.20;;;;;;;18.68;62.57;98800.25;4986592;28;20030;-71
2022/11/16 12:07:41;;;;;;;10.05;1.13;;;;;;;18.58;64.66;98818.19;4990036;28;20053;-70
2022/11/16 12:10:29;;;;;;;3.78;0.98;;;;;;;18.52;63.02;98809.78;4985126;28;20549;-70
2022/11/16 12:13:24;;;;;;;1.83;0.75;;;;;;;18.53;62.75;98801.56;4989783;28;20046;-70
2022/11/16 12:16:01;;;;;;;1.73;0.98;;;;;;;18.51;62.84;98791.91;4986514;28;20033;-71